sensor_id;sensor_type;location;lat;lon;timestamp;pressure;altitude;pressure_sealevel;temperature;humidity
20111;BME280;10216;42.658;23.248;2022-09-27T00:00:09;92827.53;;;14.79;100.00
20111;BME280;10216;42.658;23.248;2022-09-27T00:02:35;92817.03;;;14.74;100.00
20111;BME280;10216;42.658;23.248;2022-09-27T00:05:01;92841.72;;;14.70;100.00
20111;BME280;10216;42.658;23.248;2022-09-27T00:07:26;92818.03;;;14.73;100.00
20111;BME280;10216;42.658;23.248;2022-09-27T00:09:51;92836.13;;;14.73;100.00
20111;BME280;10216;42.658;23.248;2022-09-27T00:12:17;92854.22;;;14.73;100.00
20111;BME280;10216;42.658;23.248;2022-09-27T00:14:42;92851.72;;;14.60;100.00
20111;BME280;10216;42.658;23.248;2022-09-27T00:17:08;92865.59;;;14.65;100.00
20111;BME280;10216;42.658;23.248;2022-09-27T00:19:33;92865.13;;;14.75;100.00
20111;BME280;10216;42.658;23.248;2022-09-27T00:21:59;92860.91;;;14.80;100.00
20111;BME280;10216;42.658;23.248;2022-09-27T00:24:25;92875.28;;;14.76;100.00
20111;BME280;10216;42.658;23.248;2022-09-27T00:26:51;92860.72;;;14.82;100.00
20111;BME280;10216;42.658;23.248;2022-09-27T00:29:18;92850.31;;;14.89;100.00
20111;BME280;10216;42.658;23.248;2022-09-27T00:31:45;92871.06;;;14.82;100.00
20111;BME280;10216;42.658;23.248;2022-09-27T00:34:23;92852.63;;;14.72;100.00
20111;BME280;10216;42.658;23.248;2022-09-27T00:36:49;92844.34;;;14.63;100.00
20111;BME280;10216;42.658;23.248;2022-09-27T00:39:15;92833.91;;;14.52;100.00
20111;BME280;10216;42.658;23.248;2022-09-27T00:41:41;92850.00;;;14.54;100.00
20111;BME280;10216;42.658;23.248;2022-09-27T00:49:28;92824.53;;;14.57;100.00
20111;BME280;10216;42.658;23.248;2022-09-27T00:52:04;92827.84;;;14.64;100.00
20111;BME280;10216;42.658;23.248;2022-09-27T00:54:33;92811.13;;;14.67;100.00
20111;BME280;10216;42.658;23.248;2022-09-27T00:57:01;92807.97;;;14.65;100.00
20111;BME280;10216;42.658;23.248;2022-09-27T00:59:37;92807.19;;;14.64;100.00
20111;BME280;10216;42.658;23.248;2022-09-27T01:02:04;92809.19;;;14.62;100.00
20111;BME280;10216;42.658;23.248;2022-09-27T01:04:32;92803.97;;;14.69;100.00
20111;BME280;10216;42.658;23.248;2022-09-27T01:06:59;92810.69;;;14.70;100.00
20111;BME280;10216;42.658;23.248;2022-09-27T01:09:26;92821.88;;;14.64;100.00
20111;BME280;10216;42.658;23.248;2022-09-27T01:18:05;92785.25;;;14.49;100.00
20111;BME280;10216;42.658;23.248;2022-09-27T01:20:54;92814.81;;;14.53;100.00
20111;BME280;10216;42.658;23.248;2022-09-27T01:29:10;92811.19;;;14.60;100.00
20111;BME280;10216;42.658;23.248;2022-09-27T01:31:47;92818.41;;;14.52;100.00
20111;BME280;10216;42.658;23.248;2022-09-27T01:34:42;92825.16;;;14.53;100.00
20111;BME280;10216;42.658;23.248;2022-09-27T01:45:20;92832.06;;;14.59;100.00
20111;BME280;10216;42.658;23.248;2022-09-27T01:47:54;92826.56;;;14.49;100.00
20111;BME280;10216;42.658;23.248;2022-09-27T01:50:28;92820.25;;;14.44;100.00
20111;BME280;10216;42.658;23.248;2022-09-27T01:53:05;92804.28;;;14.54;100.00
20111;BME280;10216;42.658;23.248;2022-09-27T01:55:36;92795.16;;;14.52;100.00
20111;BME280;10216;42.658;23.248;2022-09-27T01:58:13;92807.66;;;14.55;100.00
20111;BME280;10216;42.658;23.248;2022-09-27T02:00:43;92804.25;;;14.61;100.00
20111;BME280;10216;42.658;23.248;2022-09-27T02:03:19;92790.09;;;14.63;100.00
20111;BME280;10216;42.658;23.248;2022-09-27T02:05:49;92789.34;;;14.56;100.00
20111;BME280;10216;42.658;23.248;2022-09-27T02:08:23;92786.63;;;14.51;100.00
20111;BME280;10216;42.658;23.248;2022-09-27T02:10:54;92786.09;;;14.36;100.00
20111;BME280;10216;42.658;23.248;2022-09-27T02:13:29;92789.94;;;14.27;100.00
20111;BME280;10216;42.658;23.248;2022-09-27T02:24:24;92744.03;;;14.29;100.00
20111;BME280;10216;42.658;23.248;2022-09-27T02:27:02;92739.47;;;14.31;100.00
20111;BME280;10216;42.658;23.248;2022-09-27T02:29:38;92726.63;;;14.24;100.00
20111;BME280;10216;42.658;23.248;2022-09-27T02:32:05;92730.00;;;14.25;100.00
20111;BME280;10216;42.658;23.248;2022-09-27T02:34:34;92726.34;;;14.32;100.00
20111;BME280;10216;42.658;23.248;2022-09-27T02:37:03;92733.50;;;14.30;100.00
20111;BME280;10216;42.658;23.248;2022-09-27T02:39:30;92717.66;;;14.27;100.00
20111;BME280;10216;42.658;23.248;2022-09-27T02:41:55;92732.53;;;14.31;100.00
20111;BME280;10216;42.658;23.248;2022-09-27T02:44:23;92734.47;;;14.36;100.00
20111;BME280;10216;42.658;23.248;2022-09-27T03:01:07;92740.03;;;14.39;100.00
20111;BME280;10216;42.658;23.248;2022-09-27T03:06:13;92715.13;;;14.20;100.00
20111;BME280;10216;42.658;23.248;2022-09-27T03:08:40;92713.13;;;14.22;100.00
20111;BME280;10216;42.658;23.248;2022-09-27T03:11:06;92702.53;;;14.30;100.00
20111;BME280;10216;42.658;23.248;2022-09-27T03:13:32;92698.50;;;14.41;100.00
20111;BME280;10216;42.658;23.248;2022-09-27T03:15:59;92704.59;;;14.22;100.00
20111;BME280;10216;42.658;23.248;2022-09-27T03:18:24;92692.25;;;14.24;100.00
20111;BME280;10216;42.658;23.248;2022-09-27T03:20:51;92686.06;;;14.31;100.00
20111;BME280;10216;42.658;23.248;2022-09-27T03:23:17;92679.44;;;14.35;100.00
20111;BME280;10216;42.658;23.248;2022-09-27T03:25:43;92689.97;;;14.40;100.00
20111;BME280;10216;42.658;23.248;2022-09-27T03:28:08;92677.22;;;14.45;100.00
20111;BME280;10216;42.658;23.248;2022-09-27T03:30:33;92687.53;;;14.45;100.00
20111;BME280;10216;42.658;23.248;2022-09-27T03:33:00;92685.47;;;14.29;100.00
20111;BME280;10216;42.658;23.248;2022-09-27T03:35:25;92684.31;;;14.25;100.00
20111;BME280;10216;42.658;23.248;2022-09-27T03:37:50;92684.00;;;14.15;100.00
20111;BME280;10216;42.658;23.248;2022-09-27T03:40:16;92671.91;;;14.34;100.00
20111;BME280;10216;42.658;23.248;2022-09-27T03:42:41;92677.28;;;14.39;100.00
20111;BME280;10216;42.658;23.248;2022-09-27T03:45:07;92689.03;;;14.28;100.00
20111;BME280;10216;42.658;23.248;2022-09-27T03:47:32;92693.22;;;14.29;100.00
20111;BME280;10216;42.658;23.248;2022-09-27T03:49:58;92689.22;;;14.33;100.00
20111;BME280;10216;42.658;23.248;2022-09-27T03:52:23;92698.94;;;14.38;100.00
20111;BME280;10216;42.658;23.248;2022-09-27T03:54:49;92697.38;;;14.30;100.00
20111;BME280;10216;42.658;23.248;2022-09-27T03:57:14;92687.16;;;14.42;100.00
20111;BME280;10216;42.658;23.248;2022-09-27T03:59:40;92678.41;;;14.43;100.00
20111;BME280;10216;42.658;23.248;2022-09-27T04:02:05;92684.81;;;14.40;100.00
20111;BME280;10216;42.658;23.248;2022-09-27T04:04:30;92677.00;;;14.47;100.00
20111;BME280;10216;42.658;23.248;2022-09-27T04:06:56;92676.22;;;14.47;100.00
20111;BME280;10216;42.658;23.248;2022-09-27T04:09:22;92683.81;;;14.35;100.00
20111;BME280;10216;42.658;23.248;2022-09-27T04:11:50;92688.75;;;14.43;100.00
20111;BME280;10216;42.658;23.248;2022-09-27T04:14:19;92676.22;;;14.47;100.00
20111;BME280;10216;42.658;23.248;2022-09-27T04:16:44;92684.97;;;14.45;100.00
20111;BME280;10216;42.658;23.248;2022-09-27T04:19:10;92672.34;;;14.31;100.00
20111;BME280;10216;42.658;23.248;2022-09-27T04:21:35;92674.28;;;14.35;100.00
20111;BME280;10216;42.658;23.248;2022-09-27T04:24:02;92677.88;;;14.34;100.00
20111;BME280;10216;42.658;23.248;2022-09-27T04:26:29;92673.13;;;14.31;100.00
20111;BME280;10216;42.658;23.248;2022-09-27T04:28:54;92671.16;;;14.33;100.00
20111;BME280;10216;42.658;23.248;2022-09-27T04:31:21;92658.66;;;14.30;100.00
20111;BME280;10216;42.658;23.248;2022-09-27T04:33:46;92669.38;;;14.27;100.00
20111;BME280;10216;42.658;23.248;2022-09-27T04:36:20;92679.50;;;14.29;100.00
20111;BME280;10216;42.658;23.248;2022-09-27T04:38:56;92667.13;;;14.37;100.00
20111;BME280;10216;42.658;23.248;2022-09-27T04:41:23;92674.34;;;14.29;100.00
20111;BME280;10216;42.658;23.248;2022-09-27T04:43:50;92687.84;;;14.31;100.00
20111;BME280;10216;42.658;23.248;2022-09-27T04:46:16;92687.78;;;14.37;100.00
20111;BME280;10216;42.658;23.248;2022-09-27T04:48:41;92689.78;;;14.35;100.00
20111;BME280;10216;42.658;23.248;2022-09-27T04:51:08;92680.25;;;14.36;100.00
20111;BME280;10216;42.658;23.248;2022-09-27T04:53:34;92684.41;;;14.37;100.00
20111;BME280;10216;42.658;23.248;2022-09-27T04:55:59;92676.88;;;14.35;100.00
20111;BME280;10216;42.658;23.248;2022-09-27T04:58:30;92670.56;;;14.31;100.00
20111;BME280;10216;42.658;23.248;2022-09-27T05:00:57;92679.09;;;14.32;100.00
20111;BME280;10216;42.658;23.248;2022-09-27T05:03:23;92667.31;;;14.36;100.00
20111;BME280;10216;42.658;23.248;2022-09-27T05:05:49;92660.00;;;14.39;100.00
20111;BME280;10216;42.658;23.248;2022-09-27T05:08:14;92663.56;;;14.38;100.00
20111;BME280;10216;42.658;23.248;2022-09-27T05:10:39;92655.66;;;14.33;100.00
20111;BME280;10216;42.658;23.248;2022-09-27T05:13:05;92634.75;;;14.35;100.00
20111;BME280;10216;42.658;23.248;2022-09-27T05:15:31;92648.47;;;14.35;100.00
20111;BME280;10216;42.658;23.248;2022-09-27T05:17:56;92649.69;;;14.33;100.00
20111;BME280;10216;42.658;23.248;2022-09-27T05:20:23;92656.00;;;14.37;100.00
20111;BME280;10216;42.658;23.248;2022-09-27T05:22:50;92641.13;;;14.39;100.00
20111;BME280;10216;42.658;23.248;2022-09-27T05:25:15;92649.09;;;14.31;100.00
20111;BME280;10216;42.658;23.248;2022-09-27T05:27:41;92639.56;;;14.31;100.00
20111;BME280;10216;42.658;23.248;2022-09-27T05:30:07;92632.53;;;14.45;100.00
20111;BME280;10216;42.658;23.248;2022-09-27T05:32:33;92652.72;;;14.48;100.00
20111;BME280;10216;42.658;23.248;2022-09-27T05:34:58;92655.63;;;14.58;100.00
20111;BME280;10216;42.658;23.248;2022-09-27T05:37:24;92645.09;;;14.60;100.00
20111;BME280;10216;42.658;23.248;2022-09-27T05:39:49;92647.94;;;14.52;100.00
20111;BME280;10216;42.658;23.248;2022-09-27T05:42:14;92652.91;;;14.53;100.00
20111;BME280;10216;42.658;23.248;2022-09-27T05:44:40;92660.00;;;14.58;100.00
20111;BME280;10216;42.658;23.248;2022-09-27T05:47:07;92660.38;;;14.61;100.00
20111;BME280;10216;42.658;23.248;2022-09-27T05:49:32;92639.94;;;14.60;100.00
20111;BME280;10216;42.658;23.248;2022-09-27T05:51:58;92628.44;;;14.56;100.00
20111;BME280;10216;42.658;23.248;2022-09-27T05:54:23;92636.75;;;14.58;100.00
20111;BME280;10216;42.658;23.248;2022-09-27T05:56:49;92646.69;;;14.61;100.00
20111;BME280;10216;42.658;23.248;2022-09-27T05:59:15;92648.53;;;14.54;100.00
20111;BME280;10216;42.658;23.248;2022-09-27T06:01:41;92653.47;;;14.55;100.00
20111;BME280;10216;42.658;23.248;2022-09-27T06:04:06;92657.00;;;14.61;100.00
20111;BME280;10216;42.658;23.248;2022-09-27T06:06:35;92671.66;;;14.67;100.00
20111;BME280;10216;42.658;23.248;2022-09-27T06:09:00;92669.06;;;14.67;100.00
20111;BME280;10216;42.658;23.248;2022-09-27T06:11:26;92670.38;;;14.76;100.00
20111;BME280;10216;42.658;23.248;2022-09-27T06:13:52;92666.00;;;14.76;100.00
20111;BME280;10216;42.658;23.248;2022-09-27T06:16:18;92677.81;;;14.84;100.00
20111;BME280;10216;42.658;23.248;2022-09-27T06:18:43;92679.56;;;14.90;100.00
20111;BME280;10216;42.658;23.248;2022-09-27T06:21:08;92672.44;;;15.04;100.00
20111;BME280;10216;42.658;23.248;2022-09-27T06:23:34;92659.56;;;15.15;100.00
20111;BME280;10216;42.658;23.248;2022-09-27T06:26:04;92663.75;;;15.16;100.00
20111;BME280;10216;42.658;23.248;2022-09-27T06:28:31;92668.91;;;15.16;100.00
20111;BME280;10216;42.658;23.248;2022-09-27T06:30:59;92673.41;;;15.21;100.00
20111;BME280;10216;42.658;23.248;2022-09-27T06:33:25;92678.97;;;15.06;100.00
20111;BME280;10216;42.658;23.248;2022-09-27T06:35:52;92681.84;;;14.98;100.00
20111;BME280;10216;42.658;23.248;2022-09-27T06:38:18;92673.78;;;15.06;100.00
20111;BME280;10216;42.658;23.248;2022-09-27T06:40:46;92668.63;;;15.06;100.00
20111;BME280;10216;42.658;23.248;2022-09-27T06:43:17;92669.28;;;15.02;100.00
20111;BME280;10216;42.658;23.248;2022-09-27T06:45:43;92668.50;;;15.01;100.00
20111;BME280;10216;42.658;23.248;2022-09-27T06:48:10;92664.84;;;14.91;100.00
20111;BME280;10216;42.658;23.248;2022-09-27T06:50:39;92652.72;;;14.91;100.00
20111;BME280;10216;42.658;23.248;2022-09-27T06:53:06;92644.72;;;14.93;100.00
20111;BME280;10216;42.658;23.248;2022-09-27T06:55:32;92643.94;;;14.92;100.00
20111;BME280;10216;42.658;23.248;2022-09-27T06:58:00;92657.72;;;15.04;100.00
20111;BME280;10216;42.658;23.248;2022-09-27T07:00:44;92655.69;;;15.06;100.00
20111;BME280;10216;42.658;23.248;2022-09-27T07:03:14;92660.78;;;15.13;100.00
20111;BME280;10216;42.658;23.248;2022-09-27T07:05:40;92658.78;;;15.15;100.00
20111;BME280;10216;42.658;23.248;2022-09-27T07:08:08;92651.09;;;15.27;100.00
20111;BME280;10216;42.658;23.248;2022-09-27T07:10:36;92658.31;;;15.36;100.00
20111;BME280;10216;42.658;23.248;2022-09-27T07:13:07;92670.03;;;15.39;100.00
20111;BME280;10216;42.658;23.248;2022-09-27T07:15:37;92661.69;;;15.37;100.00
20111;BME280;10216;42.658;23.248;2022-09-27T07:18:06;92651.94;;;15.39;100.00
20111;BME280;10216;42.658;23.248;2022-09-27T07:20:32;92664.69;;;15.52;100.00
20111;BME280;10216;42.658;23.248;2022-09-27T07:23:01;92665.41;;;15.59;100.00
20111;BME280;10216;42.658;23.248;2022-09-27T07:25:27;92675.31;;;15.62;100.00
20111;BME280;10216;42.658;23.248;2022-09-27T07:27:52;92680.03;;;15.65;100.00
20111;BME280;10216;42.658;23.248;2022-09-27T07:30:18;92686.94;;;15.71;100.00
20111;BME280;10216;42.658;23.248;2022-09-27T07:32:44;92690.41;;;15.65;100.00
20111;BME280;10216;42.658;23.248;2022-09-27T07:35:10;92692.34;;;15.70;100.00
20111;BME280;10216;42.658;23.248;2022-09-27T07:37:37;92686.00;;;15.66;100.00
20111;BME280;10216;42.658;23.248;2022-09-27T07:40:05;92692.25;;;15.76;100.00
20111;BME280;10216;42.658;23.248;2022-09-27T07:42:36;92688.41;;;15.79;100.00
20111;BME280;10216;42.658;23.248;2022-09-27T07:45:05;92681.91;;;15.88;100.00
20111;BME280;10216;42.658;23.248;2022-09-27T07:47:31;92680.69;;;15.90;100.00
20111;BME280;10216;42.658;23.248;2022-09-27T07:49:56;92679.06;;;15.78;100.00
20111;BME280;10216;42.658;23.248;2022-09-27T07:52:22;92697.63;;;15.63;100.00
20111;BME280;10216;42.658;23.248;2022-09-27T07:54:47;92689.19;;;15.49;100.00
20111;BME280;10216;42.658;23.248;2022-09-27T07:57:14;92693.97;;;15.34;100.00
20111;BME280;10216;42.658;23.248;2022-09-27T07:59:39;92680.16;;;15.22;100.00
20111;BME280;10216;42.658;23.248;2022-09-27T08:02:05;92675.44;;;15.19;100.00
20111;BME280;10216;42.658;23.248;2022-09-27T08:04:31;92650.38;;;15.19;100.00
20111;BME280;10216;42.658;23.248;2022-09-27T08:06:56;92668.31;;;15.14;100.00
20111;BME280;10216;42.658;23.248;2022-09-27T08:09:22;92669.19;;;15.27;100.00
20111;BME280;10216;42.658;23.248;2022-09-27T08:11:47;92656.22;;;15.45;100.00
20111;BME280;10216;42.658;23.248;2022-09-27T08:14:12;92662.75;;;15.47;100.00
20111;BME280;10216;42.658;23.248;2022-09-27T08:16:39;92654.22;;;15.77;100.00
20111;BME280;10216;42.658;23.248;2022-09-27T08:19:07;92664.97;;;15.92;100.00
20111;BME280;10216;42.658;23.248;2022-09-27T08:21:33;92665.09;;;16.09;100.00
20111;BME280;10216;42.658;23.248;2022-09-27T08:23:58;92663.38;;;15.91;100.00
20111;BME280;10216;42.658;23.248;2022-09-27T08:26:26;92655.13;;;15.82;100.00
20111;BME280;10216;42.658;23.248;2022-09-27T08:28:52;92653.56;;;15.81;100.00
20111;BME280;10216;42.658;23.248;2022-09-27T08:31:18;92656.94;;;15.93;100.00
20111;BME280;10216;42.658;23.248;2022-09-27T08:33:48;92650.66;;;16.01;100.00
20111;BME280;10216;42.658;23.248;2022-09-27T08:36:13;92655.03;;;16.00;100.00
20111;BME280;10216;42.658;23.248;2022-09-27T08:38:39;92641.81;;;16.20;100.00
20111;BME280;10216;42.658;23.248;2022-09-27T08:41:35;92643.16;;;16.46;100.00
20111;BME280;10216;42.658;23.248;2022-09-27T08:47:29;92655.72;;;17.01;100.00
20111;BME280;10216;42.658;23.248;2022-09-27T08:52:50;92652.47;;;17.05;100.00
20111;BME280;10216;42.658;23.248;2022-09-27T08:55:29;92647.22;;;17.29;100.00
20111;BME280;10216;42.658;23.248;2022-09-27T08:57:58;92636.91;;;17.74;100.00
20111;BME280;10216;42.658;23.248;2022-09-27T09:00:24;92631.75;;;18.07;100.00
20111;BME280;10216;42.658;23.248;2022-09-27T09:02:51;92634.88;;;18.43;100.00
20111;BME280;10216;42.658;23.248;2022-09-27T09:05:27;92628.09;;;19.19;97.78
20111;BME280;10216;42.658;23.248;2022-09-27T09:11:35;92638.81;;;20.56;88.12
20111;BME280;10216;42.658;23.248;2022-09-27T09:16:54;92646.38;;;20.26;86.12
20111;BME280;10216;42.658;23.248;2022-09-27T09:33:30;92625.28;;;17.93;98.42
20111;BME280;10216;42.658;23.248;2022-09-27T09:36:09;92624.75;;;18.58;96.55
20111;BME280;10216;42.658;23.248;2022-09-27T09:38:44;92622.00;;;18.86;95.67
20111;BME280;10216;42.658;23.248;2022-09-27T09:41:34;92611.59;;;19.30;95.23
20111;BME280;10216;42.658;23.248;2022-09-27T09:44:15;92631.59;;;20.05;92.49
20111;BME280;10216;42.658;23.248;2022-09-27T09:46:47;92626.31;;;20.58;88.84
20111;BME280;10216;42.658;23.248;2022-09-27T09:49:22;92628.38;;;20.56;87.39
20111;BME280;10216;42.658;23.248;2022-09-27T09:51:52;92635.53;;;20.39;87.07
20111;BME280;10216;42.658;23.248;2022-09-27T09:57:37;92640.16;;;19.46;89.31
20111;BME280;10216;42.658;23.248;2022-09-27T10:00:13;92633.53;;;19.39;91.14
20111;BME280;10216;42.658;23.248;2022-09-27T10:02:42;92641.53;;;19.10;91.86
20111;BME280;10216;42.658;23.248;2022-09-27T10:05:17;92628.69;;;19.26;92.15
20111;BME280;10216;42.658;23.248;2022-09-27T10:07:43;92630.66;;;19.57;91.22
20111;BME280;10216;42.658;23.248;2022-09-27T10:10:14;92637.06;;;19.49;90.06
20111;BME280;10216;42.658;23.248;2022-09-27T10:12:42;92629.81;;;19.30;90.05
20111;BME280;10216;42.658;23.248;2022-09-27T10:15:17;92630.84;;;19.51;90.03
20111;BME280;10216;42.658;23.248;2022-09-27T10:17:46;92631.25;;;19.64;91.54
20111;BME280;10216;42.658;23.248;2022-09-27T10:20:27;92621.59;;;19.92;89.08
20111;BME280;10216;42.658;23.248;2022-09-27T10:22:58;92615.06;;;20.21;87.96
20111;BME280;10216;42.658;23.248;2022-09-27T10:25:44;92617.81;;;20.36;86.32
20111;BME280;10216;42.658;23.248;2022-09-27T10:28:25;92619.81;;;20.29;85.23
20111;BME280;10216;42.658;23.248;2022-09-27T10:30:55;92606.69;;;20.19;85.00
20111;BME280;10216;42.658;23.248;2022-09-27T10:33:22;92599.84;;;20.08;86.82
20111;BME280;10216;42.658;23.248;2022-09-27T10:35:48;92611.53;;;20.05;89.23
20111;BME280;10216;42.658;23.248;2022-09-27T10:38:26;92587.97;;;20.22;89.09
20111;BME280;10216;42.658;23.248;2022-09-27T10:40:54;92598.44;;;20.32;88.73
20111;BME280;10216;42.658;23.248;2022-09-27T10:46:31;92593.38;;;22.73;81.31
20111;BME280;10216;42.658;23.248;2022-09-27T10:49:18;92570.09;;;22.62;77.60
20111;BME280;10216;42.658;23.248;2022-09-27T10:51:48;92591.88;;;24.54;70.94
20111;BME280;10216;42.658;23.248;2022-09-27T10:54:28;92562.16;;;25.72;66.76
20111;BME280;10216;42.658;23.248;2022-09-27T10:57:20;92578.56;;;28.12;61.18
20111;BME280;10216;42.658;23.248;2022-09-27T11:00:18;92562.44;;;30.92;51.97
20111;BME280;10216;42.658;23.248;2022-09-27T11:02:54;92556.69;;;32.28;46.11
20111;BME280;10216;42.658;23.248;2022-09-27T11:07:56;92561.69;;;34.61;41.82
20111;BME280;10216;42.658;23.248;2022-09-27T11:10:27;92552.97;;;34.76;42.19
20111;BME280;10216;42.658;23.248;2022-09-27T11:21:37;92548.38;;;36.06;38.89
20111;BME280;10216;42.658;23.248;2022-09-27T11:32:49;92555.97;;;37.45;35.03
20111;BME280;10216;42.658;23.248;2022-09-27T11:38:01;92539.75;;;36.70;36.45
20111;BME280;10216;42.658;23.248;2022-09-27T11:57:44;92471.63;;;28.76;48.32
20111;BME280;10216;42.658;23.248;2022-09-27T12:05:23;92452.84;;;32.90;40.50
20111;BME280;10216;42.658;23.248;2022-09-27T12:10:47;92456.72;;;36.89;35.53
20111;BME280;10216;42.658;23.248;2022-09-27T12:13:14;92454.53;;;33.59;35.96
20111;BME280;10216;42.658;23.248;2022-09-27T12:15:45;92455.22;;;33.56;36.70
20111;BME280;10216;42.658;23.248;2022-09-27T12:18:30;92437.88;;;33.62;38.73
20111;BME280;10216;42.658;23.248;2022-09-27T12:21:01;92455.06;;;35.62;36.36
20111;BME280;10216;42.658;23.248;2022-09-27T12:26:17;92429.53;;;37.10;33.80
20111;BME280;10216;42.658;23.248;2022-09-27T12:28:50;92416.66;;;37.19;32.35
20111;BME280;10216;42.658;23.248;2022-09-27T12:31:27;92419.53;;;35.77;34.17
20111;BME280;10216;42.658;23.248;2022-09-27T12:36:22;92406.34;;;36.26;33.74
20111;BME280;10216;42.658;23.248;2022-09-27T12:38:57;92393.09;;;35.02;33.72
20111;BME280;10216;42.658;23.248;2022-09-27T12:41:27;92394.19;;;33.51;36.86
20111;BME280;10216;42.658;23.248;2022-09-27T12:43:56;92377.56;;;34.41;35.28
20111;BME280;10216;42.658;23.248;2022-09-27T12:49:33;92376.69;;;36.81;34.23
20111;BME280;10216;42.658;23.248;2022-09-27T12:52:04;92371.13;;;36.66;32.68
20111;BME280;10216;42.658;23.248;2022-09-27T13:00:43;92362.56;;;35.92;31.76
20111;BME280;10216;42.658;23.248;2022-09-27T13:06:04;92372.59;;;33.68;35.61
20111;BME280;10216;42.658;23.248;2022-09-27T13:14:22;92383.09;;;32.97;34.96
20111;BME280;10216;42.658;23.248;2022-09-27T13:16:49;92366.38;;;32.97;36.50
20111;BME280;10216;42.658;23.248;2022-09-27T13:22:01;92367.19;;;31.37;38.66
20111;BME280;10216;42.658;23.248;2022-09-27T13:26:54;92352.09;;;29.74;40.99
20111;BME280;10216;42.658;23.248;2022-09-27T13:29:25;92339.19;;;28.21;44.17
20111;BME280;10216;42.658;23.248;2022-09-27T13:32:02;92337.38;;;26.52;47.51
20111;BME280;10216;42.658;23.248;2022-09-27T13:34:40;92313.34;;;25.76;51.47
20111;BME280;10216;42.658;23.248;2022-09-27T13:40:28;92327.63;;;23.83;55.04
20111;BME280;10216;42.658;23.248;2022-09-27T13:43:14;92355.50;;;23.73;56.58
20111;BME280;10216;42.658;23.248;2022-09-27T13:46:01;92355.38;;;23.26;55.38
20111;BME280;10216;42.658;23.248;2022-09-27T13:48:30;92371.34;;;22.90;58.41
20111;BME280;10216;42.658;23.248;2022-09-27T13:51:01;92358.88;;;22.72;57.24
20111;BME280;10216;42.658;23.248;2022-09-27T13:53:38;92364.78;;;22.44;59.08
20111;BME280;10216;42.658;23.248;2022-09-27T13:56:05;92381.78;;;22.41;59.36
20111;BME280;10216;42.658;23.248;2022-09-27T13:58:37;92367.91;;;22.41;61.59
20111;BME280;10216;42.658;23.248;2022-09-27T14:01:17;92371.03;;;22.48;58.94
20111;BME280;10216;42.658;23.248;2022-09-27T14:03:45;92383.06;;;22.49;58.79
20111;BME280;10216;42.658;23.248;2022-09-27T14:06:17;92379.75;;;22.28;60.26
20111;BME280;10216;42.658;23.248;2022-09-27T14:08:45;92365.44;;;22.10;61.14
20111;BME280;10216;42.658;23.248;2022-09-27T14:11:15;92359.69;;;22.13;61.84
20111;BME280;10216;42.658;23.248;2022-09-27T14:13:43;92354.00;;;21.86;63.58
20111;BME280;10216;42.658;23.248;2022-09-27T14:16:13;92358.16;;;22.02;62.71
20111;BME280;10216;42.658;23.248;2022-09-27T14:18:52;92352.41;;;22.00;62.67
20111;BME280;10216;42.658;23.248;2022-09-27T14:21:37;92363.38;;;21.92;62.87
20111;BME280;10216;42.658;23.248;2022-09-27T14:29:39;92349.81;;;21.85;64.32
20111;BME280;10216;42.658;23.248;2022-09-27T14:32:09;92332.84;;;21.83;64.12
20111;BME280;10216;42.658;23.248;2022-09-27T14:34:35;92330.50;;;21.81;63.17
20111;BME280;10216;42.658;23.248;2022-09-27T14:37:01;92326.59;;;21.73;62.57
20111;BME280;10216;42.658;23.248;2022-09-27T14:39:45;92329.19;;;21.68;62.37
20111;BME280;10216;42.658;23.248;2022-09-27T14:42:22;92322.16;;;21.64;62.84
20111;BME280;10216;42.658;23.248;2022-09-27T14:44:49;92316.41;;;21.62;62.25
20111;BME280;10216;42.658;23.248;2022-09-27T14:47:24;92318.03;;;21.53;63.17
20111;BME280;10216;42.658;23.248;2022-09-27T14:52:26;92338.41;;;21.46;63.16
20111;BME280;10216;42.658;23.248;2022-09-27T14:55:42;92332.41;;;21.35;63.27
20111;BME280;10216;42.658;23.248;2022-09-27T14:58:01;92346.78;;;21.37;62.26
20111;BME280;10216;42.658;23.248;2022-09-27T15:00:32;92373.41;;;21.29;62.91
20111;BME280;10216;42.658;23.248;2022-09-27T15:03:06;92464.72;;;20.94;67.63
20111;BME280;10216;42.658;23.248;2022-09-27T15:05:34;92465.50;;;19.48;72.91
20111;BME280;10216;42.658;23.248;2022-09-27T15:08:02;92516.44;;;16.56;83.74
20111;BME280;10216;42.658;23.248;2022-09-27T15:10:32;92514.53;;;14.45;89.91
20111;BME280;10216;42.658;23.248;2022-09-27T15:12:59;92498.25;;;13.65;97.54
20111;BME280;10216;42.658;23.248;2022-09-27T15:15:27;92492.97;;;13.79;100.00
20111;BME280;10216;42.658;23.248;2022-09-27T15:18:00;92500.44;;;13.62;100.00
20111;BME280;10216;42.658;23.248;2022-09-27T15:22:55;92529.47;;;13.57;100.00
20111;BME280;10216;42.658;23.248;2022-09-27T15:25:42;92554.25;;;13.58;100.00
20111;BME280;10216;42.658;23.248;2022-09-27T15:28:20;92532.91;;;13.69;100.00
20111;BME280;10216;42.658;23.248;2022-09-27T15:30:54;92506.88;;;13.78;100.00
20111;BME280;10216;42.658;23.248;2022-09-27T15:33:23;92491.38;;;13.78;100.00
20111;BME280;10216;42.658;23.248;2022-09-27T15:35:55;92491.25;;;13.91;100.00
20111;BME280;10216;42.658;23.248;2022-09-27T16:31:02;92540.31;;;14.82;100.00
20111;BME280;10216;42.658;23.248;2022-09-27T16:33:29;92541.09;;;14.82;100.00
20111;BME280;10216;42.658;23.248;2022-09-27T16:35:55;92529.56;;;14.67;100.00
20111;BME280;10216;42.658;23.248;2022-09-27T16:38:21;92512.63;;;14.71;100.00
20111;BME280;10216;42.658;23.248;2022-09-27T16:40:46;92507.59;;;14.76;100.00